< < Back
Terminal Aerodrome Forecast


Current Version              Previous Versions:   1  2  3  4  5  6  7  8  9  

Terminal Aerodrome Forecast

475
FTUS42 KCAE 310216 AAA
TAFAGS
TAF AMD
KAGS 310216Z 3102/3124 VRB04KT P6SM SCT040
     FM310800 VRB03KT 3SM BR SCT010
     FM311300 36006KT P6SM SCT050=



Latest METAR

885
SAUS70 KWBC 310356
MTRAGS
METAR KAGS 310353Z AUTO 22003KT 10SM CLR 21/19 A2992 RMK AO2 SLP129
T02060189


USA.gov is the U.S. government's official web portal to all federal, state and local government web resources and services.